createdAt,value
2017-07-12T00:01:09.533Z,78.60
2017-07-12T00:03:39.180Z,78.50
2017-07-12T00:06:08.061Z,78.50
2017-07-12T00:08:37.022Z,78.50
2017-07-12T00:11:06.842Z,78.60
2017-07-12T00:13:36.501Z,78.60
2017-07-12T00:16:05.394Z,78.40
2017-07-12T00:18:34.285Z,78.50
2017-07-12T00:21:03.169Z,78.60
2017-07-12T00:23:32.035Z,78.60
2017-07-12T00:26:00.912Z,78.50
2017-07-12T00:28:30.581Z,78.40
2017-07-12T00:30:59.457Z,78.40
2017-07-12T00:33:28.333Z,78.20
2017-07-12T00:35:57.188Z,78.20
2017-07-12T00:38:26.076Z,78.20
2017-07-12T00:40:54.923Z,78.10
2017-07-12T00:43:23.762Z,78.00
2017-07-12T00:45:52.649Z,78.00
2017-07-12T00:48:21.545Z,77.90
2017-07-12T00:50:51.194Z,77.60
2017-07-12T00:53:20.069Z,77.60
2017-07-12T00:55:48.967Z,77.60
2017-07-12T00:58:17.860Z,77.60
2017-07-12T01:00:46.775Z,77.60
2017-07-12T01:03:15.670Z,77.50
2017-07-12T01:05:44.557Z,77.40
2017-07-12T01:08:13.446Z,77.40
2017-07-12T01:10:42.320Z,77.50
2017-07-12T01:13:11.203Z,77.50
2017-07-12T01:15:40.073Z,77.50
2017-07-12T01:18:08.952Z,77.50
2017-07-12T01:20:37.823Z,77.60
2017-07-12T01:23:06.701Z,77.80
2017-07-12T01:25:35.556Z,77.70
2017-07-12T01:28:04.423Z,77.50
2017-07-12T01:30:33.313Z,77.40
2017-07-12T01:33:02.198Z,77.30
2017-07-12T01:35:31.856Z,77.50
2017-07-12T01:38:00.746Z,77.40
2017-07-12T01:40:29.630Z,77.50
2017-07-12T01:42:58.522Z,77.50
2017-07-12T01:45:27.417Z,77.50
2017-07-12T01:47:56.309Z,77.50
2017-07-12T01:50:25.195Z,77.50
2017-07-12T01:52:54.079Z,77.50
2017-07-12T01:55:22.974Z,77.50
2017-07-12T01:57:51.852Z,77.50
2017-07-12T02:00:20.736Z,77.70
2017-07-12T02:02:49.632Z,77.80
2017-07-12T02:05:18.532Z,78.00
2017-07-12T02:07:47.417Z,77.90
2017-07-12T02:10:16.283Z,78.00
2017-07-12T02:12:45.157Z,77.90
2017-07-12T02:15:14.038Z,78.00
2017-07-12T02:17:42.898Z,78.10
2017-07-12T02:20:11.795Z,78.10
2017-07-12T02:22:40.667Z,78.10
2017-07-12T02:25:10.330Z,78.00
2017-07-12T02:27:39.212Z,78.60
2017-07-12T02:30:08.110Z,78.40
2017-07-12T02:32:36.964Z,78.40
2017-07-12T02:35:05.848Z,78.50
2017-07-12T02:37:34.728Z,78.60
2017-07-12T02:40:04.406Z,78.60
2017-07-12T02:42:33.298Z,78.50
2017-07-12T02:45:02.181Z,78.60
2017-07-12T02:47:31.078Z,78.70
2017-07-12T02:49:59.945Z,78.60
2017-07-12T02:52:28.837Z,78.60
2017-07-12T02:54:57.718Z,78.70
2017-07-12T02:57:26.418Z,78.80
2017-07-12T02:59:55.316Z,78.90
2017-07-12T03:02:24.177Z,78.90
2017-07-12T03:04:53.059Z,78.90
2017-07-12T03:07:21.941Z,78.90
2017-07-12T03:09:50.876Z,79.00
2017-07-12T03:12:19.771Z,79.00
2017-07-12T03:14:48.674Z,78.90
2017-07-12T03:17:17.571Z,78.90
2017-07-12T03:19:46.426Z,78.70
2017-07-12T03:22:15.306Z,78.70
2017-07-12T03:24:44.180Z,78.50
2017-07-12T03:27:13.073Z,78.40
2017-07-12T03:29:42.737Z,78.50
2017-07-12T03:32:11.637Z,78.50
2017-07-12T03:34:40.588Z,78.50
2017-07-12T03:37:09.477Z,78.30
2017-07-12T03:39:49.461Z,78.40
2017-07-12T03:42:18.351Z,78.20
2017-07-12T03:44:47.252Z,78.20
2017-07-12T03:47:16.917Z,78.10
2017-07-12T03:49:45.778Z,78.00
2017-07-12T03:52:15.439Z,77.40
2017-07-12T03:54:44.318Z,78.00
2017-07-12T03:57:13.188Z,77.90
2017-07-12T03:59:42.851Z,77.70
2017-07-12T04:02:11.742Z,77.60
2017-07-12T04:04:40.624Z,77.50
2017-07-12T04:07:09.506Z,77.60
2017-07-12T04:09:38.356Z,77.40
2017-07-12T04:12:07.237Z,77.20
2017-07-12T04:14:36.134Z,77.10
2017-07-12T04:17:05.021Z,77.00
2017-07-12T04:19:34.678Z,77.50
2017-07-12T04:22:03.521Z,76.80
2017-07-12T04:24:33.184Z,76.70
2017-07-12T04:27:02.059Z,76.70
2017-07-12T04:29:30.951Z,76.70
2017-07-12T04:31:59.837Z,76.60
2017-07-12T04:34:28.734Z,76.60
2017-07-12T04:36:57.618Z,76.40
2017-07-12T04:39:26.512Z,76.40
2017-07-12T04:41:55.431Z,76.50
2017-07-12T04:44:24.309Z,76.30
2017-07-12T04:46:53.189Z,76.30
2017-07-12T04:49:21.897Z,76.10
2017-07-12T04:51:50.797Z,75.90
2017-07-12T04:54:19.685Z,75.60
2017-07-12T04:56:48.530Z,75.50
2017-07-12T04:59:17.414Z,75.20
2017-07-12T05:01:46.275Z,75.30
2017-07-12T05:04:15.165Z,75.10
2017-07-12T05:06:44.059Z,74.90
2017-07-12T05:09:12.940Z,75.00
2017-07-12T05:11:41.838Z,74.90
2017-07-12T05:14:10.725Z,74.90
2017-07-12T05:16:39.624Z,75.00
2017-07-12T05:19:08.497Z,75.10
2017-07-12T05:21:37.374Z,75.10
2017-07-12T05:24:06.260Z,75.10
2017-07-12T05:26:35.141Z,75.10
2017-07-12T05:29:03.997Z,74.90
2017-07-12T05:31:32.877Z,74.80
2017-07-12T05:34:01.760Z,74.80
2017-07-12T05:36:30.616Z,74.60
2017-07-12T05:38:59.509Z,74.40
2017-07-12T05:41:28.358Z,74.40
2017-07-12T05:43:57.233Z,74.40
2017-07-12T07:11:24.463Z,74.40
2017-07-12T07:13:53.366Z,72.30
2017-07-12T07:16:22.253Z,72.60
2017-07-12T07:18:51.136Z,72.80
2017-07-12T07:21:20.034Z,73.10
2017-07-12T07:23:48.941Z,73.30
2017-07-12T07:26:17.813Z,73.20
2017-07-12T07:28:46.684Z,73.20
2017-07-12T07:31:15.571Z,73.20
2017-07-12T07:33:44.462Z,73.20
2017-07-12T07:36:13.410Z,73.30
2017-07-12T07:38:42.501Z,73.20
2017-07-12T07:41:11.397Z,73.00
2017-07-12T07:43:40.278Z,73.00
2017-07-12T07:46:09.178Z,72.80
2017-07-12T07:48:38.070Z,72.70
2017-07-12T07:51:06.948Z,72.70
2017-07-12T07:53:35.838Z,72.90
2017-07-12T07:56:04.713Z,72.90
2017-07-12T07:58:33.585Z,72.90
2017-07-12T08:01:02.474Z,72.80
2017-07-12T08:03:31.383Z,72.90
2017-07-12T08:06:00.302Z,72.70
2017-07-12T08:08:29.195Z,72.90
2017-07-12T08:10:58.063Z,72.70
2017-07-12T08:13:26.950Z,72.60
2017-07-12T08:15:55.855Z,72.50
2017-07-12T08:18:24.780Z,72.50
2017-07-12T08:20:53.669Z,72.30
2017-07-12T08:23:23.338Z,72.10
2017-07-12T08:25:52.233Z,72.10
2017-07-12T08:28:21.107Z,72.00
2017-07-12T08:30:49.961Z,71.50
2017-07-12T08:33:18.844Z,71.20
2017-07-12T08:35:47.703Z,71.00
2017-07-12T08:38:16.669Z,70.90
2017-07-12T08:40:45.556Z,70.50
2017-07-12T08:43:14.452Z,70.30
2017-07-12T08:45:43.338Z,70.10
2017-07-12T08:48:12.216Z,69.40
2017-07-12T08:50:41.847Z,68.00
2017-07-12T08:53:10.724Z,67.90
2017-07-12T08:55:39.609Z,67.80
2017-07-12T08:58:08.496Z,67.70
2017-07-12T09:00:37.865Z,67.20
2017-07-12T09:03:06.754Z,66.70
2017-07-12T09:05:35.639Z,65.80
2017-07-12T09:08:04.518Z,65.60
2017-07-12T09:10:33.397Z,65.00
2017-07-12T09:13:02.295Z,64.10
2017-07-12T09:15:31.146Z,63.10
2017-07-12T09:18:00.813Z,62.00
2017-07-12T09:20:29.688Z,61.80
2017-07-12T09:22:58.579Z,61.40
2017-07-12T09:35:25.992Z,59.40
2017-07-12T09:37:54.887Z,58.80
2017-07-12T09:40:23.773Z,58.60
2017-07-12T09:42:52.668Z,57.90
2017-07-12T09:45:21.550Z,57.90
2017-07-12T09:47:50.433Z,57.20
2017-07-12T09:50:20.097Z,56.10
2017-07-12T09:52:48.993Z,56.10
2017-07-12T09:55:17.875Z,55.00
2017-07-12T09:57:46.717Z,55.00
2017-07-12T10:00:15.619Z,54.80
2017-07-12T10:02:44.505Z,54.30
2017-07-12T10:05:13.388Z,54.00
2017-07-12T10:07:42.274Z,53.60
2017-07-12T10:10:11.178Z,53.80
2017-07-12T10:12:40.066Z,53.40
2017-07-12T10:15:08.944Z,53.20
2017-07-12T10:17:38.602Z,52.20
2017-07-12T10:20:07.480Z,52.00
2017-07-12T10:22:36.360Z,51.90
2017-07-12T10:25:05.252Z,51.70
2017-07-12T10:27:34.142Z,51.50
2017-07-12T10:30:03.025Z,51.10
2017-07-12T10:32:31.920Z,51.10
2017-07-12T10:35:00.789Z,50.90
2017-07-12T10:37:29.674Z,50.60
2017-07-12T10:39:59.322Z,50.00
2017-07-12T10:42:28.183Z,49.70
2017-07-12T10:44:57.829Z,50.00
2017-07-12T10:47:26.720Z,50.00
2017-07-12T10:49:55.583Z,49.60
2017-07-12T10:52:25.231Z,49.20
2017-07-12T10:54:54.146Z,49.20
2017-07-12T10:57:23.041Z,48.90
2017-07-12T10:59:51.585Z,48.90
2017-07-12T11:02:20.213Z,48.30
2017-07-12T11:04:49.104Z,48.20
2017-07-12T11:07:18.001Z,48.00
2017-07-12T11:09:46.891Z,48.10
2017-07-12T11:12:15.789Z,47.60
2017-07-12T11:14:44.672Z,47.60
2017-07-12T11:17:13.556Z,47.50
2017-07-12T11:19:42.403Z,47.50
2017-07-12T11:22:11.284Z,47.80
2017-07-12T11:24:40.190Z,48.00
2017-07-12T11:27:09.074Z,48.00
2017-07-12T11:29:37.966Z,48.10
2017-07-12T11:32:06.864Z,48.40
2017-07-12T11:34:35.744Z,48.60
2017-07-12T11:37:04.628Z,48.90
2017-07-12T11:39:34.278Z,48.90
2017-07-12T11:42:03.183Z,48.90
2017-07-12T11:44:32.080Z,49.10
2017-07-12T11:47:00.977Z,49.20
2017-07-12T11:49:29.842Z,49.30
2017-07-12T11:51:58.728Z,49.40
2017-07-12T11:54:27.576Z,49.30
2017-07-12T11:56:57.245Z,49.60
2017-07-12T11:59:26.130Z,49.50
2017-07-12T12:01:55.033Z,49.50
2017-07-12T12:04:23.925Z,49.50
2017-07-12T12:06:52.821Z,49.50
2017-07-12T12:09:21.722Z,49.90
2017-07-12T12:11:50.577Z,49.90
2017-07-12T12:14:19.434Z,50.10
2017-07-12T12:16:48.330Z,50.30
2017-07-12T12:19:17.225Z,50.40
2017-07-12T12:21:47.878Z,51.40
2017-07-12T12:24:16.805Z,51.40
2017-07-12T12:26:46.326Z,52.00
2017-07-12T12:29:15.214Z,53.00
2017-07-12T12:31:44.113Z,53.90
2017-07-12T12:34:13.003Z,55.40
2017-07-12T12:36:41.905Z,56.80
2017-07-12T12:39:10.792Z,58.10
2017-07-12T12:41:39.643Z,59.40
2017-07-12T12:44:08.350Z,61.00
2017-07-12T12:46:37.303Z,62.60
2017-07-12T12:49:06.038Z,63.50
2017-07-12T12:51:34.920Z,64.70
2017-07-12T12:54:03.625Z,66.10
2017-07-12T12:56:32.480Z,67.10
2017-07-12T12:59:01.174Z,67.90
2017-07-12T13:01:30.065Z,68.90
2017-07-12T13:03:58.766Z,69.90
2017-07-12T13:06:27.624Z,71.00
2017-07-12T13:08:56.521Z,71.10
2017-07-12T13:11:25.410Z,71.50
2017-07-12T13:13:54.307Z,72.10
2017-07-12T13:16:23.197Z,72.40
2017-07-12T13:18:52.072Z,72.50
2017-07-12T13:21:20.961Z,72.80
2017-07-12T13:23:49.867Z,73.30
2017-07-12T13:26:18.751Z,73.90
2017-07-12T13:28:47.634Z,73.70
2017-07-12T13:31:16.520Z,73.40
2017-07-12T13:33:45.412Z,73.60
2017-07-12T13:36:14.283Z,74.20
2017-07-12T13:38:43.949Z,75.10
2017-07-12T13:41:12.830Z,75.10
2017-07-12T13:43:41.696Z,75.20
2017-07-12T13:46:10.593Z,75.70
2017-07-12T13:48:39.451Z,75.50
2017-07-12T13:51:08.334Z,75.70
2017-07-12T13:53:37.176Z,75.90
2017-07-12T13:56:06.068Z,75.90
2017-07-12T13:58:34.967Z,75.30
2017-07-12T14:01:03.835Z,75.30
2017-07-12T14:03:32.701Z,75.60
2017-07-12T14:06:02.352Z,76.80
2017-07-12T14:08:31.237Z,76.30
2017-07-12T14:11:00.126Z,76.70
2017-07-12T14:13:29.026Z,77.00
2017-07-12T14:15:57.884Z,76.90
2017-07-12T14:18:26.791Z,77.10
2017-07-12T14:20:55.696Z,77.40
2017-07-12T14:23:24.614Z,77.50
2017-07-12T14:25:53.510Z,77.50
2017-07-12T14:28:22.405Z,77.60
2017-07-12T14:30:51.294Z,77.80
2017-07-12T14:33:20.192Z,77.70
2017-07-12T14:35:49.090Z,77.60
2017-07-12T14:38:17.978Z,77.80
2017-07-12T14:40:46.876Z,78.20
2017-07-12T14:43:15.764Z,77.70
2017-07-12T14:45:44.650Z,77.60
2017-07-12T14:48:13.550Z,77.50
2017-07-12T14:50:42.411Z,77.50
2017-07-12T14:53:11.300Z,78.00
2017-07-12T14:55:40.216Z,78.00
2017-07-12T14:58:09.116Z,78.00
2017-07-12T15:00:38.012Z,77.60
2017-07-12T15:03:06.892Z,77.30
2017-07-12T15:05:35.786Z,77.10
2017-07-12T15:08:04.746Z,76.80
2017-07-12T15:10:33.624Z,76.60
2017-07-12T15:13:02.502Z,76.90
2017-07-12T15:15:32.174Z,76.80
2017-07-12T15:18:01.031Z,76.70
2017-07-12T15:20:29.934Z,76.90
2017-07-12T15:22:58.824Z,77.00
2017-07-12T15:25:27.708Z,76.80
2017-07-12T15:27:56.564Z,76.70
2017-07-12T15:30:25.429Z,76.80
2017-07-12T15:32:54.319Z,76.90
2017-07-12T15:35:23.200Z,77.40
2017-07-12T15:37:52.086Z,77.40
2017-07-12T15:40:20.991Z,77.50
2017-07-12T15:42:49.884Z,77.80
2017-07-12T15:45:18.790Z,77.90
2017-07-12T15:47:47.668Z,77.90
2017-07-12T15:50:16.573Z,78.20
2017-07-12T15:52:45.467Z,78.40
2017-07-12T15:55:14.363Z,78.40
2017-07-12T15:57:43.224Z,78.50
2017-07-12T16:00:12.107Z,78.70
2017-07-12T16:02:40.988Z,78.70
2017-07-12T16:05:09.868Z,78.70
2017-07-12T16:07:38.774Z,79.00
2017-07-12T16:10:07.664Z,79.10
2017-07-12T16:12:36.546Z,79.50
2017-07-12T16:15:05.395Z,79.40
2017-07-12T16:17:34.549Z,79.30
2017-07-12T16:20:03.428Z,79.40
2017-07-12T16:22:32.327Z,79.10
2017-07-12T16:25:01.293Z,79.30
2017-07-12T16:27:30.953Z,79.70
2017-07-12T16:29:59.832Z,79.50
2017-07-12T16:32:28.707Z,79.60
2017-07-12T16:34:57.565Z,79.50
2017-07-12T16:37:27.208Z,79.40
2017-07-12T16:39:56.105Z,79.30
2017-07-12T16:42:24.994Z,78.40
2017-07-12T16:44:53.873Z,78.30
2017-07-12T16:47:24.253Z,78.10
2017-07-12T16:49:53.140Z,77.50
2017-07-12T16:52:22.032Z,76.60
2017-07-12T16:54:51.491Z,76.30
2017-07-12T16:57:20.382Z,75.70
2017-07-12T16:59:49.281Z,75.50
2017-07-12T17:02:18.129Z,75.70
2017-07-12T17:04:47.786Z,75.20
2017-07-12T17:07:16.683Z,75.10
2017-07-12T17:09:45.569Z,75.10
2017-07-12T17:12:14.463Z,75.10
2017-07-12T17:14:43.446Z,75.10
2017-07-12T17:17:12.889Z,74.80
2017-07-12T17:19:41.783Z,74.70
2017-07-12T17:22:10.664Z,74.50
2017-07-12T17:24:39.556Z,74.30
2017-07-12T17:27:08.408Z,74.40
2017-07-12T17:29:37.246Z,74.60
2017-07-12T17:32:06.120Z,74.30
2017-07-12T17:34:35.021Z,74.20
2017-07-12T17:37:03.879Z,74.40
2017-07-12T17:39:32.775Z,74.30
2017-07-12T17:42:01.752Z,74.30
2017-07-12T17:44:30.799Z,74.30
2017-07-12T17:46:59.680Z,74.30
2017-07-12T17:49:28.574Z,74.40
2017-07-12T17:51:57.469Z,74.20
2017-07-12T17:54:26.362Z,74.20
2017-07-12T17:56:55.249Z,74.10
2017-07-12T17:59:24.146Z,73.90
2017-07-12T18:01:53.025Z,73.70
2017-07-12T18:04:21.926Z,73.40
2017-07-12T18:06:51.456Z,73.30
2017-07-12T18:09:20.336Z,73.30
2017-07-12T18:11:49.226Z,73.30
2017-07-12T18:14:18.116Z,73.30
2017-07-12T18:16:46.998Z,73.30
2017-07-12T18:19:15.893Z,74.00
2017-07-12T18:21:44.786Z,73.20
2017-07-12T18:24:13.669Z,73.20
2017-07-12T18:26:42.513Z,73.20
2017-07-12T18:29:11.373Z,73.00
2017-07-12T18:31:40.252Z,73.00
2017-07-12T18:34:09.136Z,73.00
2017-07-12T18:36:38.824Z,73.10
2017-07-12T18:39:07.692Z,73.00
2017-07-12T18:41:37.397Z,72.90
2017-07-12T18:44:06.275Z,72.80
2017-07-12T18:46:35.935Z,72.80
2017-07-12T18:49:04.833Z,72.70
2017-07-12T18:51:33.711Z,72.70
2017-07-12T18:54:02.562Z,72.40
2017-07-12T18:56:32.227Z,72.60
2017-07-12T18:59:00.829Z,72.60
2017-07-12T19:01:29.722Z,72.60
2017-07-12T19:03:58.604Z,72.70
2017-07-12T19:06:27.489Z,72.50
2017-07-12T19:08:56.396Z,72.30
2017-07-12T19:11:25.291Z,72.40
2017-07-12T19:13:54.290Z,72.30
2017-07-12T19:16:23.135Z,72.30
2017-07-12T19:18:52.019Z,72.40
2017-07-12T19:21:20.901Z,71.90
2017-07-12T19:23:49.788Z,71.60
2017-07-12T19:26:19.451Z,70.80
2017-07-12T19:28:48.343Z,70.80
2017-07-12T19:31:17.247Z,70.20
2017-07-12T19:33:46.098Z,70.00
2017-07-12T19:36:14.981Z,69.80
2017-07-12T19:38:43.865Z,69.40
2017-07-12T19:41:12.749Z,68.80
2017-07-12T19:43:42.704Z,68.30
2017-07-12T19:46:11.612Z,68.20
2017-07-12T19:48:40.511Z,68.20
2017-07-12T19:51:09.398Z,68.50
2017-07-12T19:53:38.287Z,68.50
2017-07-12T19:56:07.143Z,68.70
2017-07-12T19:58:36.003Z,68.90
2017-07-12T20:01:05.735Z,69.70
2017-07-12T20:03:34.890Z,69.70
2017-07-12T20:06:04.583Z,72.00
2017-07-12T20:08:33.477Z,72.00
2017-07-12T20:11:02.357Z,73.80
2017-07-12T20:13:31.246Z,74.90
2017-07-12T20:16:00.143Z,75.90
2017-07-12T20:18:29.019Z,76.50
2017-07-12T20:20:57.896Z,77.70
2017-07-12T20:23:26.783Z,77.80
2017-07-12T20:25:55.669Z,78.20
2017-07-12T20:28:24.548Z,78.50
2017-07-12T20:30:54.204Z,79.50
2017-07-12T20:33:23.058Z,79.50
2017-07-12T20:35:51.941Z,79.60
2017-07-12T20:38:21.558Z,80.50
2017-07-12T20:40:51.168Z,80.40
2017-07-12T20:43:20.054Z,81.40
2017-07-12T20:45:49.705Z,81.90
2017-07-12T20:48:18.585Z,81.90
2017-07-12T20:50:48.056Z,82.00
2017-07-12T20:53:17.700Z,82.70
2017-07-12T20:55:46.577Z,82.60
2017-07-12T20:58:15.472Z,82.80
2017-07-12T21:00:44.312Z,83.50
2017-07-12T21:03:13.192Z,83.90
2017-07-12T21:05:42.164Z,84.40
2017-07-12T21:08:11.040Z,84.20
2017-07-12T21:10:39.931Z,84.50
2017-07-12T21:13:08.813Z,85.10
2017-07-12T21:15:37.701Z,85.60
2017-07-12T21:18:06.600Z,85.70
2017-07-12T21:20:35.942Z,85.70
2017-07-12T21:23:04.828Z,85.40
2017-07-12T21:25:33.722Z,85.30
2017-07-12T21:28:02.619Z,85.40
2017-07-12T21:30:32.207Z,85.50
2017-07-12T21:33:02.445Z,85.50
2017-07-12T21:35:31.373Z,85.30
2017-07-12T21:38:00.332Z,85.30
2017-07-12T21:40:29.528Z,85.20
2017-07-12T21:42:58.413Z,85.30
2017-07-12T21:45:27.291Z,85.50
2017-07-12T21:47:56.183Z,85.50
2017-07-12T21:50:25.094Z,85.30
2017-07-12T21:52:53.972Z,85.60
2017-07-12T21:55:39.588Z,85.50
2017-07-12T21:58:25.749Z,85.60
2017-07-12T22:01:11.458Z,85.50
